createdAt,value
2022-11-29T00:00:22.156Z,98403.09
2022-11-29T00:02:58.984Z,98393.38
2022-11-29T00:05:40.494Z,98395.25
2022-11-29T00:08:20.861Z,98397.88
2022-11-29T00:21:32.852Z,98398.00
2022-11-29T00:24:07.172Z,98398.84
2022-11-29T00:26:40.848Z,98403.28
2022-11-29T00:29:14.723Z,98394.56
2022-11-29T00:31:48.877Z,98400.63
2022-11-29T00:48:25.844Z,98392.88
2022-11-29T00:51:05.852Z,98396.41
2022-11-29T00:53:39.220Z,98391.13
2022-11-29T00:56:13.857Z,98399.06
2022-11-29T00:58:53.926Z,98398.13
2022-11-29T01:01:33.893Z,98399.81
2022-11-29T01:04:09.048Z,98398.06
2022-11-29T01:13:44.859Z,98398.97
2022-11-29T01:16:18.252Z,98407.75
2022-11-29T01:18:51.858Z,98406.16
2022-11-29T01:21:27.125Z,98400.94
2022-11-29T01:24:00.843Z,98399.97
2022-11-29T01:26:34.160Z,98411.38
2022-11-29T01:29:07.845Z,98413.16
2022-11-29T01:42:20.865Z,98417.53
2022-11-29T01:45:15.056Z,98420.16
2022-11-29T01:47:59.453Z,98412.25
2022-11-29T01:50:33.067Z,98411.38
2022-11-29T01:53:06.829Z,98412.25
2022-11-29T02:07:07.902Z,98422.78
2022-11-29T02:09:43.116Z,98408.84
2022-11-29T02:12:32.848Z,98410.59
2022-11-29T02:15:33.091Z,98414.19
2022-11-29T02:18:17.879Z,98419.47
2022-11-29T02:21:30.420Z,98414.19
2022-11-29T02:35:02.805Z,98424.75
2022-11-29T02:38:27.829Z,98425.69
2022-11-29T02:41:36.529Z,98434.56
2022-11-29T02:44:54.834Z,98436.25
2022-11-29T02:47:47.328Z,98438.84
2022-11-29T03:01:02.942Z,98438.03
2022-11-29T03:03:52.818Z,98443.31
2022-11-29T03:06:40.450Z,98438.03
2022-11-29T03:09:34.834Z,98444.16
2022-11-29T03:12:25.388Z,98445.97
2022-11-29T03:28:56.827Z,98457.50
2022-11-29T03:31:36.716Z,98459.28
2022-11-29T03:34:33.808Z,98455.69
2022-11-29T03:37:17.117Z,98455.78
2022-11-29T03:40:02.821Z,98455.78
2022-11-29T03:42:47.196Z,98462.84
2022-11-29T03:55:59.775Z,98461.19
2022-11-29T03:59:00.828Z,98454.13
2022-11-29T04:02:07.865Z,98463.75
2022-11-29T04:05:36.816Z,98455.03
2022-11-29T04:08:47.712Z,98462.03
2022-11-29T04:22:33.776Z,98466.50
2022-11-29T04:25:57.830Z,98470.00
2022-11-29T04:29:07.717Z,98471.84
2022-11-29T04:32:19.805Z,98478.84
2022-11-29T04:49:30.787Z,98490.31
2022-11-29T04:52:53.823Z,98486.81
2022-11-29T04:55:43.840Z,98495.66
2022-11-29T04:58:35.483Z,98495.66
2022-11-29T05:01:25.311Z,98498.34
2022-11-29T05:04:22.796Z,98496.63
2022-11-29T05:14:36.759Z,98497.47
2022-11-29T05:17:37.810Z,98509.88
2022-11-29T05:20:35.693Z,98502.09
2022-11-29T05:23:35.872Z,98499.44
2022-11-29T05:26:19.887Z,98505.53
2022-11-29T05:29:09.829Z,98518.72
2022-11-29T05:42:45.860Z,98520.53
2022-11-29T05:45:30.653Z,98520.53
2022-11-29T05:48:21.812Z,98523.19
2022-11-29T05:51:11.061Z,98525.00
2022-11-29T05:54:06.791Z,98524.09
2022-11-29T06:08:04.833Z,98532.19
2022-11-29T06:10:51.461Z,98533.97
2022-11-29T06:13:58.803Z,98543.59
2022-11-29T06:16:57.995Z,98531.34
2022-11-29T06:20:18.797Z,98540.16
2022-11-29T06:23:20.972Z,98543.72
2022-11-29T06:36:25.753Z,98551.75
2022-11-29T06:39:08.776Z,98552.66
2022-11-29T06:41:42.144Z,98558.84
2022-11-29T06:44:16.776Z,98563.22
2022-11-29T06:47:05.045Z,98561.47
2022-11-29T07:03:51.824Z,98580.00
2022-11-29T07:06:28.022Z,98580.84
2022-11-29T07:09:06.772Z,98585.22
2022-11-29T07:11:42.328Z,98577.31
2022-11-29T07:14:16.791Z,98584.44
2022-11-29T07:17:05.981Z,98583.56
2022-11-29T07:30:16.740Z,98589.81
2022-11-29T07:33:11.818Z,98597.72
2022-11-29T07:35:59.397Z,98601.19
2022-11-29T07:38:56.782Z,98599.50
2022-11-29T07:41:43.824Z,98605.63
2022-11-29T07:55:00.738Z,98599.53
2022-11-29T07:57:40.823Z,98610.91
2022-11-29T08:00:15.597Z,98610.81
2022-11-29T08:02:49.834Z,98616.91
2022-11-29T08:05:23.171Z,98611.59
2022-11-29T08:07:57.343Z,98612.47
2022-11-29T08:24:34.740Z,98616.69
2022-11-29T08:27:14.783Z,98623.75
2022-11-29T08:29:47.963Z,98618.47
2022-11-29T08:32:14.677Z,98624.53
2022-11-29T08:34:54.853Z,98622.81
2022-11-29T08:37:28.082Z,98625.41
2022-11-29T08:50:23.753Z,98621.00
2022-11-29T08:53:04.744Z,98633.25
2022-11-29T08:55:40.665Z,98627.84
2022-11-29T08:58:16.826Z,98636.59
2022-11-29T09:00:50.067Z,98640.94
2022-11-29T09:03:23.758Z,98646.16
2022-11-29T09:16:39.851Z,98657.34
2022-11-29T09:19:14.080Z,98652.06
2022-11-29T09:21:53.776Z,98653.78
2022-11-29T09:24:26.940Z,98659.88
2022-11-29T09:27:06.755Z,98660.69
2022-11-29T09:43:56.722Z,98668.16
2022-11-29T09:46:57.228Z,98669.06
2022-11-29T09:50:03.292Z,98670.81
2022-11-29T09:52:58.731Z,98667.25
2022-11-29T09:55:49.255Z,98675.09
2022-11-29T09:58:35.737Z,98667.13
2022-11-29T10:08:55.720Z,98668.72
2022-11-29T10:11:45.901Z,98677.56
2022-11-29T10:14:26.646Z,98665.16
2022-11-29T10:17:21.757Z,98679.16
2022-11-29T10:20:04.594Z,98681.81
2022-11-29T10:22:51.758Z,98675.59
2022-11-29T10:36:08.757Z,98657.88
2022-11-29T10:38:44.404Z,98660.47
2022-11-29T10:41:25.764Z,98661.25
2022-11-29T10:44:00.054Z,98659.41
2022-11-29T10:46:39.737Z,98660.28
2022-11-29T10:49:18.228Z,98668.13
2022-11-29T11:02:26.701Z,98662.56
2022-11-29T11:05:07.803Z,98669.50
2022-11-29T11:07:41.077Z,98672.13
2022-11-29T11:10:31.722Z,98672.94
2022-11-29T11:13:20.071Z,98682.50
2022-11-29T11:16:05.428Z,98679.03
2022-11-29T11:18:40.944Z,98673.75
2022-11-29T11:31:30.507Z,98678.03
2022-11-29T11:34:35.736Z,98686.81
2022-11-29T11:37:21.817Z,98683.25
2022-11-29T11:40:31.827Z,98675.41
2022-11-29T11:43:04.984Z,98685.09
2022-11-29T11:56:06.685Z,98696.63
2022-11-29T11:58:56.727Z,98688.78
2022-11-29T12:01:37.154Z,98676.56
2022-11-29T12:04:23.725Z,98688.72
2022-11-29T12:07:02.386Z,98695.72
2022-11-29T12:23:41.717Z,98695.53
2022-11-29T12:26:49.031Z,98692.84
2022-11-29T12:29:26.712Z,98687.47
2022-11-29T12:32:22.453Z,98688.28
2022-11-29T12:35:37.705Z,98685.59
2022-11-29T12:38:43.459Z,98693.44
2022-11-29T12:51:50.683Z,98702.06
2022-11-29T12:54:58.716Z,98699.44
2022-11-29T12:57:44.327Z,98712.63
2022-11-29T13:00:27.696Z,98709.19
2022-11-29T13:03:19.456Z,98713.66
2022-11-29T13:16:40.693Z,98731.38
2022-11-29T13:19:31.779Z,98726.09
2022-11-29T13:22:19.868Z,98737.56
2022-11-29T13:25:06.781Z,98723.53
2022-11-29T13:27:55.267Z,98737.66
2022-11-29T13:44:36.741Z,98753.72
2022-11-29T13:47:13.839Z,98750.25
2022-11-29T13:50:01.718Z,98753.72
2022-11-29T13:52:40.509Z,98753.84
2022-11-29T13:55:27.722Z,98748.59
2022-11-29T13:58:17.370Z,98748.69
2022-11-29T14:11:27.666Z,98764.66
2022-11-29T14:14:13.677Z,98771.66
2022-11-29T14:16:53.153Z,98764.66
2022-11-29T14:19:36.808Z,98760.28
2022-11-29T14:22:27.447Z,98763.91
2022-11-29T14:36:08.664Z,98770.16
2022-11-29T14:39:02.719Z,98768.44
2022-11-29T14:41:55.288Z,98765.88
2022-11-29T14:44:41.093Z,98770.25
2022-11-29T14:47:26.870Z,98764.97
2022-11-29T15:03:54.738Z,98784.50
2022-11-29T15:06:30.722Z,98793.31
2022-11-29T15:09:18.678Z,98797.75
2022-11-29T15:12:00.096Z,98788.97
2022-11-29T15:14:56.681Z,98789.88
2022-11-29T15:17:41.507Z,98797.00
2022-11-29T15:30:42.694Z,98805.84
2022-11-29T15:33:29.664Z,98797.00
2022-11-29T15:36:08.009Z,98810.19
2022-11-29T15:38:50.715Z,98812.84
2022-11-29T15:41:29.227Z,98810.19
2022-11-29T15:44:12.677Z,98811.09
2022-11-29T15:57:32.680Z,98825.22
2022-11-29T16:00:11.753Z,98813.81
2022-11-29T16:02:57.663Z,98818.22
2022-11-29T16:05:35.121Z,98820.84
2022-11-29T16:08:23.679Z,98826.13
2022-11-29T16:25:17.616Z,98843.84
2022-11-29T16:28:00.680Z,98842.09
2022-11-29T16:30:40.352Z,98844.75
2022-11-29T16:33:28.736Z,98846.47
2022-11-29T16:36:13.320Z,98843.00
2022-11-29T16:38:59.675Z,98846.53
2022-11-29T16:52:31.677Z,98849.13
2022-11-29T16:55:05.558Z,98855.28
2022-11-29T16:57:39.659Z,98852.66
2022-11-29T17:00:24.539Z,98863.19
2022-11-29T17:03:04.640Z,98850.03
2022-11-29T17:16:50.690Z,98870.41
2022-11-29T17:19:24.643Z,98865.16
2022-11-29T17:21:58.658Z,98870.44
2022-11-29T17:24:32.014Z,98870.44
2022-11-29T17:27:06.190Z,98874.81
2022-11-29T17:29:39.835Z,98869.59
2022-11-29T17:32:14.667Z,98874.00
2022-11-29T17:45:24.660Z,98883.69
2022-11-29T17:48:00.637Z,98887.16
2022-11-29T17:50:34.640Z,98890.69
2022-11-29T17:53:07.862Z,98898.63
2022-11-29T17:55:42.637Z,98895.09
2022-11-29T17:58:15.932Z,98894.25
2022-11-29T18:11:13.616Z,98892.53
2022-11-29T18:13:53.632Z,98903.94
2022-11-29T18:16:30.380Z,98904.88
2022-11-29T18:19:12.657Z,98903.97
2022-11-29T18:21:46.444Z,98899.63
2022-11-29T18:24:20.657Z,98904.88
2022-11-29T18:38:06.420Z,98906.72
2022-11-29T18:40:25.802Z,98911.09
2022-11-29T18:42:58.641Z,98907.63
2022-11-29T18:45:35.327Z,98911.16
2022-11-29T18:48:15.688Z,98908.53
2022-11-29T18:50:48.839Z,98910.25
2022-11-29T18:53:23.672Z,98910.25
2022-11-29T19:03:51.608Z,98916.56
2022-11-29T19:06:39.260Z,98917.47
2022-11-29T19:09:17.496Z,98917.53
2022-11-29T19:11:57.643Z,98917.56
2022-11-29T19:14:30.790Z,98916.66
2022-11-29T19:17:04.692Z,98926.41
2022-11-29T19:19:37.913Z,98924.69
2022-11-29T19:32:27.589Z,98930.84
2022-11-29T19:35:08.730Z,98921.22
2022-11-29T19:37:41.825Z,98924.75
2022-11-29T19:40:15.619Z,98930.94
2022-11-29T19:42:49.584Z,98932.72
2022-11-29T19:59:12.676Z,98939.13
2022-11-29T20:01:45.865Z,98943.47
2022-11-29T20:04:19.629Z,98944.44
2022-11-29T20:06:52.777Z,98944.44
2022-11-29T20:09:26.627Z,98953.25
2022-11-29T20:11:59.934Z,98954.16
2022-11-29T20:14:35.619Z,98957.72
2022-11-29T20:24:22.585Z,98962.19
2022-11-29T20:27:02.641Z,98963.91
2022-11-29T20:29:37.893Z,98965.69
2022-11-29T20:32:11.592Z,98963.91
2022-11-29T20:34:46.036Z,98963.91
2022-11-29T20:37:44.308Z,98967.47
2022-11-29T20:51:39.607Z,98964.91
2022-11-29T20:55:16.253Z,98964.00
2022-11-29T20:59:01.660Z,98966.69
2022-11-29T21:02:38.085Z,98971.09
2022-11-29T21:20:01.595Z,98967.69
2022-11-29T21:23:41.117Z,98972.97
2022-11-29T21:27:24.598Z,98983.56
2022-11-29T21:31:03.998Z,98980.00
2022-11-29T21:34:47.866Z,98983.47
2022-11-29T21:45:24.585Z,98976.47
2022-11-29T21:49:07.605Z,98982.59
2022-11-29T21:52:28.059Z,98985.22
2022-11-29T21:56:11.585Z,98991.38
2022-11-29T21:59:48.235Z,98987.88
2022-11-29T22:13:35.559Z,98987.88
2022-11-29T22:17:18.665Z,98987.03
2022-11-29T22:20:26.572Z,98984.31
2022-11-29T22:23:40.571Z,98982.56
2022-11-29T22:39:00.556Z,98975.56
2022-11-29T22:41:54.917Z,98979.94
2022-11-29T22:44:37.848Z,98982.53
2022-11-29T22:47:35.881Z,98980.72
2022-11-29T22:50:10.809Z,98985.22
2022-11-29T22:52:43.799Z,98980.84
2022-11-29T23:05:55.820Z,98979.94
2022-11-29T23:08:28.992Z,98981.63
2022-11-29T23:11:02.815Z,98975.56
2022-11-29T23:13:38.727Z,98977.31
2022-11-29T23:16:15.855Z,98984.31
2022-11-29T23:18:49.358Z,98972.94
2022-11-29T23:31:39.880Z,98980.88
2022-11-29T23:34:19.835Z,98990.56
2022-11-29T23:36:53.478Z,98987.94
2022-11-29T23:39:26.833Z,98994.09
2022-11-29T23:42:00.024Z,98983.56
2022-11-29T23:44:26.688Z,98989.75
